sensor_id;sensor_type;location;lat;lon;timestamp;pressure;altitude;pressure_sealevel;temperature;humidity
54870;BME280;40756;-37.950;145.008;2023-01-04T00:00:37;100849.05;;;17.41;45.94
54870;BME280;40756;-37.950;145.008;2023-01-04T00:03:07;100857.69;;;16.27;49.79
54870;BME280;40756;-37.950;145.008;2023-01-04T00:05:36;100853.21;;;15.76;50.90
54870;BME280;40756;-37.950;145.008;2023-01-04T00:08:06;100851.62;;;16.61;47.26
54870;BME280;40756;-37.950;145.008;2023-01-04T00:10:36;100850.08;;;16.73;47.15
54870;BME280;40756;-37.950;145.008;2023-01-04T00:13:05;100857.71;;;16.54;48.38
54870;BME280;40756;-37.950;145.008;2023-01-04T00:15:35;100863.55;;;16.65;49.36
54870;BME280;40756;-37.950;145.008;2023-01-04T00:18:04;100860.52;;;16.65;48.74
54870;BME280;40756;-37.950;145.008;2023-01-04T00:20:34;100868.46;;;16.64;48.40
54870;BME280;40756;-37.950;145.008;2023-01-04T00:23:03;100869.99;;;17.21;48.28
54870;BME280;40756;-37.950;145.008;2023-01-04T00:25:33;100871.02;;;16.59;48.65
54870;BME280;40756;-37.950;145.008;2023-01-04T00:28:03;100863.40;;;17.02;47.79
54870;BME280;40756;-37.950;145.008;2023-01-04T00:30:32;100871.84;;;17.38;47.40
54870;BME280;40756;-37.950;145.008;2023-01-04T00:33:01;100872.38;;;17.13;45.71
54870;BME280;40756;-37.950;145.008;2023-01-04T00:35:31;100880.45;;;17.30;45.20
54870;BME280;40756;-37.950;145.008;2023-01-04T00:38:02;100875.59;;;17.18;46.15
54870;BME280;40756;-37.950;145.008;2023-01-04T00:40:32;100882.59;;;16.98;47.35
54870;BME280;40756;-37.950;145.008;2023-01-04T00:43:02;100878.33;;;17.07;50.24
54870;BME280;40756;-37.950;145.008;2023-01-04T00:45:31;100889.38;;;16.17;52.11
54870;BME280;40756;-37.950;145.008;2023-01-04T00:48:01;100887.64;;;16.04;51.90
54870;BME280;40756;-37.950;145.008;2023-01-04T00:50:30;100881.72;;;16.26;50.96
54870;BME280;40756;-37.950;145.008;2023-01-04T00:53:00;100885.78;;;16.50;51.15
54870;BME280;40756;-37.950;145.008;2023-01-04T00:55:31;100888.67;;;16.39;50.94
54870;BME280;40756;-37.950;145.008;2023-01-04T00:58:00;100888.53;;;16.94;50.86
54870;BME280;40756;-37.950;145.008;2023-01-04T01:00:30;100881.27;;;17.04;50.08
54870;BME280;40756;-37.950;145.008;2023-01-04T01:03:00;100884.01;;;16.84;50.42
54870;BME280;40756;-37.950;145.008;2023-01-04T01:05:30;100888.25;;;16.86;49.75
54870;BME280;40756;-37.950;145.008;2023-01-04T01:08:00;100892.95;;;17.04;49.56
54870;BME280;40756;-37.950;145.008;2023-01-04T01:10:30;100889.73;;;16.46;50.11
54870;BME280;40756;-37.950;145.008;2023-01-04T01:13:02;100890.82;;;16.48;50.51
54870;BME280;40756;-37.950;145.008;2023-01-04T01:15:34;100892.66;;;17.00;50.34
54870;BME280;40756;-37.950;145.008;2023-01-04T01:18:03;100896.98;;;17.01;51.98
54870;BME280;40756;-37.950;145.008;2023-01-04T01:20:32;100896.34;;;15.87;54.56
54870;BME280;40756;-37.950;145.008;2023-01-04T01:23:01;100894.57;;;15.80;55.75
54870;BME280;40756;-37.950;145.008;2023-01-04T01:25:33;100900.74;;;15.99;55.72
54870;BME280;40756;-37.950;145.008;2023-01-04T01:28:03;100894.78;;;16.24;56.11
54870;BME280;40756;-37.950;145.008;2023-01-04T01:30:32;100895.71;;;16.04;55.69
54870;BME280;40756;-37.950;145.008;2023-01-04T01:33:02;100894.30;;;16.27;54.97
54870;BME280;40756;-37.950;145.008;2023-01-04T01:35:33;100892.79;;;14.97;56.74
54870;BME280;40756;-37.950;145.008;2023-01-04T01:38:03;100892.32;;;14.72;57.13
54870;BME280;40756;-37.950;145.008;2023-01-04T01:40:33;100888.76;;;15.08;56.60
54870;BME280;40756;-37.950;145.008;2023-01-04T01:43:02;100889.25;;;15.42;56.62
54870;BME280;40756;-37.950;145.008;2023-01-04T01:45:33;100890.71;;;15.09;57.43
54870;BME280;40756;-37.950;145.008;2023-01-04T01:48:10;100886.77;;;15.19;55.91
54870;BME280;40756;-37.950;145.008;2023-01-04T01:50:44;100879.98;;;15.93;55.27
54870;BME280;40756;-37.950;145.008;2023-01-04T01:53:14;100890.20;;;15.54;56.54
54870;BME280;40756;-37.950;145.008;2023-01-04T01:55:45;100888.86;;;15.77;56.25
54870;BME280;40756;-37.950;145.008;2023-01-04T01:58:21;100890.36;;;15.31;57.58
54870;BME280;40756;-37.950;145.008;2023-01-04T02:00:51;100888.36;;;15.36;58.24
54870;BME280;40756;-37.950;145.008;2023-01-04T02:03:23;100877.34;;;15.12;57.45
54870;BME280;40756;-37.950;145.008;2023-01-04T02:05:56;100883.34;;;15.21;58.00
54870;BME280;40756;-37.950;145.008;2023-01-04T02:08:27;100882.83;;;14.85;57.04
54870;BME280;40756;-37.950;145.008;2023-01-04T02:10:59;100882.19;;;15.17;56.70
54870;BME280;40756;-37.950;145.008;2023-01-04T02:13:30;100882.39;;;15.55;56.41
54870;BME280;40756;-37.950;145.008;2023-01-04T02:16:09;100875.61;;;15.08;56.28
54870;BME280;40756;-37.950;145.008;2023-01-04T02:18:46;100876.07;;;15.63;55.41
54870;BME280;40756;-37.950;145.008;2023-01-04T02:21:21;100872.00;;;15.32;56.21
54870;BME280;40756;-37.950;145.008;2023-01-04T02:24:26;100870.51;;;15.50;55.98
54870;BME280;40756;-37.950;145.008;2023-01-04T02:27:54;100878.43;;;15.43;58.23
54870;BME280;40756;-37.950;145.008;2023-01-04T02:31:21;100879.07;;;15.35;58.10
54870;BME280;40756;-37.950;145.008;2023-01-04T02:34:01;100874.55;;;16.35;55.87
54870;BME280;40756;-37.950;145.008;2023-01-04T02:36:36;100863.20;;;16.23;55.12
54870;BME280;40756;-37.950;145.008;2023-01-04T02:39:16;100862.85;;;15.78;55.06
54870;BME280;40756;-37.950;145.008;2023-01-04T02:41:52;100867.54;;;15.61;54.30
54870;BME280;40756;-37.950;145.008;2023-01-04T02:44:30;100861.98;;;15.78;54.65
54870;BME280;40756;-37.950;145.008;2023-01-04T02:47:05;100865.02;;;15.91;55.03
54870;BME280;40756;-37.950;145.008;2023-01-04T02:49:35;100869.01;;;16.02;55.86
54870;BME280;40756;-37.950;145.008;2023-01-04T02:52:05;100868.90;;;15.91;55.99
54870;BME280;40756;-37.950;145.008;2023-01-04T02:54:34;100866.41;;;15.36;56.55
54870;BME280;40756;-37.950;145.008;2023-01-04T02:57:13;100861.54;;;15.46;56.10
54870;BME280;40756;-37.950;145.008;2023-01-04T03:00:18;100863.96;;;15.37;56.09
54870;BME280;40756;-37.950;145.008;2023-01-04T03:03:02;100865.54;;;15.39;55.34
54870;BME280;40756;-37.950;145.008;2023-01-04T03:05:46;100862.27;;;15.95;54.83
54870;BME280;40756;-37.950;145.008;2023-01-04T03:08:26;100857.47;;;16.65;54.54
54870;BME280;40756;-37.950;145.008;2023-01-04T03:11:03;100860.76;;;17.06;53.72
54870;BME280;40756;-37.950;145.008;2023-01-04T03:13:37;100861.06;;;16.72;53.20
54870;BME280;40756;-37.950;145.008;2023-01-04T03:16:14;100873.64;;;16.74;52.50
54870;BME280;40756;-37.950;145.008;2023-01-04T03:18:48;100863.93;;;16.53;52.83
54870;BME280;40756;-37.950;145.008;2023-01-04T03:21:22;100865.90;;;17.09;52.65
54870;BME280;40756;-37.950;145.008;2023-01-04T03:23:56;100873.09;;;17.00;52.36
54870;BME280;40756;-37.950;145.008;2023-01-04T03:26:29;100874.47;;;16.90;52.38
54870;BME280;40756;-37.950;145.008;2023-01-04T03:29:07;100863.95;;;17.76;51.60
54870;BME280;40756;-37.950;145.008;2023-01-04T03:31:43;100866.42;;;16.66;51.50
54870;BME280;40756;-37.950;145.008;2023-01-04T03:34:15;100873.92;;;16.81;50.21
54870;BME280;40756;-37.950;145.008;2023-01-04T03:36:54;100867.06;;;17.51;50.17
54870;BME280;40756;-37.950;145.008;2023-01-04T03:39:33;100859.47;;;17.05;51.27
54870;BME280;40756;-37.950;145.008;2023-01-04T03:42:12;100869.73;;;16.62;51.22
54870;BME280;40756;-37.950;145.008;2023-01-04T03:44:49;100863.66;;;18.19;49.88
54870;BME280;40756;-37.950;145.008;2023-01-04T03:47:26;100857.19;;;18.30;48.58
54870;BME280;40756;-37.950;145.008;2023-01-04T03:50:03;100861.37;;;17.58;48.27
54870;BME280;40756;-37.950;145.008;2023-01-04T03:52:35;100873.69;;;18.12;47.40
54870;BME280;40756;-37.950;145.008;2023-01-04T03:55:09;100859.22;;;18.50;47.45
54870;BME280;40756;-37.950;145.008;2023-01-04T03:57:41;100872.41;;;18.44;46.37
54870;BME280;40756;-37.950;145.008;2023-01-04T04:00:13;100864.53;;;18.07;47.43
54870;BME280;40756;-37.950;145.008;2023-01-04T04:02:47;100865.48;;;17.77;47.45
54870;BME280;40756;-37.950;145.008;2023-01-04T04:05:19;100871.08;;;17.88;48.94
54870;BME280;40756;-37.950;145.008;2023-01-04T04:07:50;100866.49;;;18.67;47.67
54870;BME280;40756;-37.950;145.008;2023-01-04T04:10:20;100871.01;;;18.35;47.07
54870;BME280;40756;-37.950;145.008;2023-01-04T04:12:49;100863.89;;;18.58;47.50
54870;BME280;40756;-37.950;145.008;2023-01-04T04:15:19;100869.98;;;18.69;46.54
54870;BME280;40756;-37.950;145.008;2023-01-04T04:17:48;100864.38;;;18.47;46.34
54870;BME280;40756;-37.950;145.008;2023-01-04T04:20:19;100870.56;;;17.31;46.78
54870;BME280;40756;-37.950;145.008;2023-01-04T04:22:48;100865.60;;;17.66;46.96
54870;BME280;40756;-37.950;145.008;2023-01-04T04:25:17;100870.40;;;18.51;45.74
54870;BME280;40756;-37.950;145.008;2023-01-04T04:27:47;100868.38;;;18.45;45.59
54870;BME280;40756;-37.950;145.008;2023-01-04T04:30:17;100865.22;;;18.29;45.13
54870;BME280;40756;-37.950;145.008;2023-01-04T04:32:46;100868.88;;;17.86;46.77
54870;BME280;40756;-37.950;145.008;2023-01-04T04:35:16;100875.52;;;17.44;47.68
54870;BME280;40756;-37.950;145.008;2023-01-04T04:37:46;100880.03;;;17.47;48.75
54870;BME280;40756;-37.950;145.008;2023-01-04T04:40:15;100879.40;;;17.56;47.68
54870;BME280;40756;-37.950;145.008;2023-01-04T04:42:46;100878.84;;;17.83;48.14
54870;BME280;40756;-37.950;145.008;2023-01-04T04:45:16;100886.90;;;17.58;46.64
54870;BME280;40756;-37.950;145.008;2023-01-04T04:47:46;100885.25;;;18.32;46.82
54870;BME280;40756;-37.950;145.008;2023-01-04T04:50:15;100886.87;;;18.27;47.57
54870;BME280;40756;-37.950;145.008;2023-01-04T04:52:45;100891.31;;;18.63;47.46
54870;BME280;40756;-37.950;145.008;2023-01-04T04:55:15;100888.13;;;18.85;47.60
54870;BME280;40756;-37.950;145.008;2023-01-04T04:57:44;100903.96;;;19.02;46.94
54870;BME280;40756;-37.950;145.008;2023-01-04T05:00:14;100887.71;;;18.79;44.81
54870;BME280;40756;-37.950;145.008;2023-01-04T05:02:44;100895.62;;;18.64;43.81
54870;BME280;40756;-37.950;145.008;2023-01-04T05:05:13;100897.60;;;18.46;45.50
54870;BME280;40756;-37.950;145.008;2023-01-04T05:07:43;100888.40;;;17.92;46.21
54870;BME280;40756;-37.950;145.008;2023-01-04T05:10:13;100902.98;;;17.90;46.58
54870;BME280;40756;-37.950;145.008;2023-01-04T05:12:42;100903.91;;;18.32;46.05
54870;BME280;40756;-37.950;145.008;2023-01-04T05:15:12;100908.26;;;17.10;46.64
54870;BME280;40756;-37.950;145.008;2023-01-04T05:17:42;100905.29;;;17.89;46.76
54870;BME280;40756;-37.950;145.008;2023-01-04T05:20:12;100910.46;;;18.03;47.34
54870;BME280;40756;-37.950;145.008;2023-01-04T05:22:41;100911.97;;;18.11;46.98
54870;BME280;40756;-37.950;145.008;2023-01-04T05:25:12;100905.68;;;17.61;47.11
54870;BME280;40756;-37.950;145.008;2023-01-04T05:27:41;100909.80;;;17.43;46.86
54870;BME280;40756;-37.950;145.008;2023-01-04T05:30:12;100908.78;;;17.94;45.80
54870;BME280;40756;-37.950;145.008;2023-01-04T05:32:42;100921.07;;;17.69;45.88
54870;BME280;40756;-37.950;145.008;2023-01-04T05:35:11;100921.47;;;17.91;47.44
54870;BME280;40756;-37.950;145.008;2023-01-04T05:37:42;100927.71;;;17.56;46.11
54870;BME280;40756;-37.950;145.008;2023-01-04T05:40:12;100919.47;;;17.19;46.00
54870;BME280;40756;-37.950;145.008;2023-01-04T05:42:41;100923.33;;;16.87;47.64
54870;BME280;40756;-37.950;145.008;2023-01-04T05:45:12;100925.72;;;17.72;46.94
54870;BME280;40756;-37.950;145.008;2023-01-04T05:47:41;100922.74;;;17.47;46.99
54870;BME280;40756;-37.950;145.008;2023-01-04T05:50:11;100932.92;;;16.82;47.95
54870;BME280;40756;-37.950;145.008;2023-01-04T05:52:40;100936.95;;;17.06;49.15
54870;BME280;40756;-37.950;145.008;2023-01-04T05:55:10;100947.95;;;16.54;52.49
54870;BME280;40756;-37.950;145.008;2023-01-04T05:57:40;100952.06;;;15.36;56.18
54870;BME280;40756;-37.950;145.008;2023-01-04T06:00:11;100952.58;;;14.62;59.81
54870;BME280;40756;-37.950;145.008;2023-01-04T06:02:42;100958.27;;;15.04;57.47
54870;BME280;40756;-37.950;145.008;2023-01-04T06:05:34;100951.85;;;14.82;57.19
54870;BME280;40756;-37.950;145.008;2023-01-04T06:08:04;100949.68;;;15.34;55.02
54870;BME280;40756;-37.950;145.008;2023-01-04T06:10:34;100946.26;;;14.64;55.21
54870;BME280;40756;-37.950;145.008;2023-01-04T06:13:04;100940.42;;;15.01;54.94
54870;BME280;40756;-37.950;145.008;2023-01-04T06:15:33;100933.82;;;15.41;52.63
54870;BME280;40756;-37.950;145.008;2023-01-04T06:18:03;100922.31;;;15.09;51.81
54870;BME280;40756;-37.950;145.008;2023-01-04T06:20:33;100929.81;;;16.04;53.14
54870;BME280;40756;-37.950;145.008;2023-01-04T06:23:02;100927.49;;;15.15;52.63
54870;BME280;40756;-37.950;145.008;2023-01-04T06:25:32;100927.04;;;15.29;53.23
54870;BME280;40756;-37.950;145.008;2023-01-04T06:28:02;100926.47;;;15.18;53.92
54870;BME280;40756;-37.950;145.008;2023-01-04T06:30:31;100927.96;;;15.06;54.08
54870;BME280;40756;-37.950;145.008;2023-01-04T06:33:01;100919.44;;;15.11;54.40
54870;BME280;40756;-37.950;145.008;2023-01-04T06:35:31;100917.89;;;15.43;54.57
54870;BME280;40756;-37.950;145.008;2023-01-04T06:38:00;100918.06;;;15.53;54.71
54870;BME280;40756;-37.950;145.008;2023-01-04T06:40:30;100918.38;;;15.54;54.12
54870;BME280;40756;-37.950;145.008;2023-01-04T06:42:59;100917.75;;;15.96;53.24
54870;BME280;40756;-37.950;145.008;2023-01-04T06:45:29;100920.48;;;14.83;54.75
54870;BME280;40756;-37.950;145.008;2023-01-04T06:47:59;100913.39;;;15.82;53.29
54870;BME280;40756;-37.950;145.008;2023-01-04T06:50:28;100926.61;;;15.95;52.84
54870;BME280;40756;-37.950;145.008;2023-01-04T06:52:58;100920.52;;;15.17;54.64
54870;BME280;40756;-37.950;145.008;2023-01-04T06:55:28;100918.41;;;15.43;55.29
54870;BME280;40756;-37.950;145.008;2023-01-04T06:57:58;100921.75;;;15.18;55.53
54870;BME280;40756;-37.950;145.008;2023-01-04T07:00:28;100917.84;;;15.02;55.10
54870;BME280;40756;-37.950;145.008;2023-01-04T07:02:57;100915.82;;;16.23;53.22
54870;BME280;40756;-37.950;145.008;2023-01-04T07:05:27;100918.99;;;15.36;53.96
54870;BME280;40756;-37.950;145.008;2023-01-04T07:07:59;100917.21;;;15.76;53.09
54870;BME280;40756;-37.950;145.008;2023-01-04T07:10:29;100919.27;;;15.83;53.30
54870;BME280;40756;-37.950;145.008;2023-01-04T07:12:59;100920.74;;;15.94;53.39
54870;BME280;40756;-37.950;145.008;2023-01-04T07:15:29;100928.10;;;15.31;54.06
54870;BME280;40756;-37.950;145.008;2023-01-04T07:17:58;100918.25;;;15.91;52.44
54870;BME280;40756;-37.950;145.008;2023-01-04T07:20:28;100923.22;;;15.53;53.34
54870;BME280;40756;-37.950;145.008;2023-01-04T07:22:57;100925.25;;;16.21;51.95
54870;BME280;40756;-37.950;145.008;2023-01-04T07:25:27;100920.50;;;16.57;51.15
54870;BME280;40756;-37.950;145.008;2023-01-04T07:27:57;100923.71;;;15.55;52.45
54870;BME280;40756;-37.950;145.008;2023-01-04T07:30:27;100932.12;;;15.82;52.83
54870;BME280;40756;-37.950;145.008;2023-01-04T07:32:56;100929.24;;;15.70;52.79
54870;BME280;40756;-37.950;145.008;2023-01-04T07:35:26;100930.21;;;16.06;52.64
54870;BME280;40756;-37.950;145.008;2023-01-04T07:37:55;100926.34;;;15.76;52.11
54870;BME280;40756;-37.950;145.008;2023-01-04T07:40:25;100927.20;;;15.85;52.92
54870;BME280;40756;-37.950;145.008;2023-01-04T07:42:57;100925.39;;;16.11;51.99
54870;BME280;40756;-37.950;145.008;2023-01-04T07:45:27;100923.60;;;16.53;51.32
54870;BME280;40756;-37.950;145.008;2023-01-04T07:47:57;100923.95;;;16.43;51.86
54870;BME280;40756;-37.950;145.008;2023-01-04T07:50:27;100928.02;;;15.79;52.32
54870;BME280;40756;-37.950;145.008;2023-01-04T07:52:56;100929.17;;;16.07;51.26
54870;BME280;40756;-37.950;145.008;2023-01-04T07:55:26;100933.44;;;16.05;52.23
54870;BME280;40756;-37.950;145.008;2023-01-04T07:57:56;100927.11;;;15.56;52.66
54870;BME280;40756;-37.950;145.008;2023-01-04T08:00:25;100940.76;;;16.34;51.68
54870;BME280;40756;-37.950;145.008;2023-01-04T08:02:55;100942.34;;;15.79;51.71
54870;BME280;40756;-37.950;145.008;2023-01-04T08:05:25;100944.79;;;15.93;51.27
54870;BME280;40756;-37.950;145.008;2023-01-04T08:07:54;100952.03;;;15.53;50.99
54870;BME280;40756;-37.950;145.008;2023-01-04T08:10:24;100949.02;;;16.28;50.62
54870;BME280;40756;-37.950;145.008;2023-01-04T08:12:54;100952.84;;;16.07;50.79
54870;BME280;40756;-37.950;145.008;2023-01-04T08:15:27;100950.57;;;16.00;50.36
54870;BME280;40756;-37.950;145.008;2023-01-04T08:17:57;100955.89;;;15.94;51.47
54870;BME280;40756;-37.950;145.008;2023-01-04T08:20:27;100951.83;;;16.52;50.44
54870;BME280;40756;-37.950;145.008;2023-01-04T08:22:56;100955.47;;;15.87;50.99
54870;BME280;40756;-37.950;145.008;2023-01-04T08:25:26;100960.85;;;15.78;51.60
54870;BME280;40756;-37.950;145.008;2023-01-04T08:27:55;100956.41;;;16.11;50.62
54870;BME280;40756;-37.950;145.008;2023-01-04T08:30:25;100956.02;;;17.06;49.74
54870;BME280;40756;-37.950;145.008;2023-01-04T08:32:55;100963.04;;;16.14;50.68
54870;BME280;40756;-37.950;145.008;2023-01-04T08:35:24;100955.95;;;16.49;49.91
54870;BME280;40756;-37.950;145.008;2023-01-04T08:37:54;100970.68;;;16.25;50.31
54870;BME280;40756;-37.950;145.008;2023-01-04T08:40:24;100970.47;;;16.31;50.14
54870;BME280;40756;-37.950;145.008;2023-01-04T08:42:53;100970.09;;;16.70;49.70
54870;BME280;40756;-37.950;145.008;2023-01-04T08:45:23;100978.68;;;16.31;50.35
54870;BME280;40756;-37.950;145.008;2023-01-04T08:47:52;100966.46;;;17.03;49.23
54870;BME280;40756;-37.950;145.008;2023-01-04T08:50:22;100974.43;;;17.08;48.15
54870;BME280;40756;-37.950;145.008;2023-01-04T08:52:51;100977.57;;;16.45;49.06
54870;BME280;40756;-37.950;145.008;2023-01-04T08:55:21;100972.36;;;17.37;48.10
54870;BME280;40756;-37.950;145.008;2023-01-04T08:57:51;100973.17;;;17.25;48.12
54870;BME280;40756;-37.950;145.008;2023-01-04T09:00:20;100979.61;;;16.73;48.50
54870;BME280;40756;-37.950;145.008;2023-01-04T09:02:50;100985.60;;;17.10;48.28
54870;BME280;40756;-37.950;145.008;2023-01-04T09:05:20;100977.50;;;16.99;48.51
54870;BME280;40756;-37.950;145.008;2023-01-04T09:07:49;100993.62;;;16.41;49.63
54870;BME280;40756;-37.950;145.008;2023-01-04T09:10:19;100986.67;;;16.55;49.14
54870;BME280;40756;-37.950;145.008;2023-01-04T09:12:48;100991.58;;;16.69;48.73
54870;BME280;40756;-37.950;145.008;2023-01-04T09:15:18;100988.61;;;16.38;49.55
54870;BME280;40756;-37.950;145.008;2023-01-04T09:17:49;100995.33;;;17.16;48.75
54870;BME280;40756;-37.950;145.008;2023-01-04T09:20:19;101001.13;;;16.93;49.26
54870;BME280;40756;-37.950;145.008;2023-01-04T09:22:49;101001.91;;;16.62;49.37
54870;BME280;40756;-37.950;145.008;2023-01-04T09:25:18;101004.69;;;16.83;49.12
54870;BME280;40756;-37.950;145.008;2023-01-04T09:27:48;101006.18;;;17.56;47.94
54870;BME280;40756;-37.950;145.008;2023-01-04T09:30:17;101008.29;;;17.58;47.53
54870;BME280;40756;-37.950;145.008;2023-01-04T09:32:47;101011.31;;;17.24;47.91
54870;BME280;40756;-37.950;145.008;2023-01-04T09:35:17;101007.33;;;17.60;47.84
54870;BME280;40756;-37.950;145.008;2023-01-04T09:37:46;101016.95;;;17.49;47.60
54870;BME280;40756;-37.950;145.008;2023-01-04T09:40:21;101011.83;;;17.28;48.40
54870;BME280;40756;-37.950;145.008;2023-01-04T09:42:54;101018.99;;;16.79;48.62
54870;BME280;40756;-37.950;145.008;2023-01-04T09:45:25;101022.41;;;16.39;49.36
54870;BME280;40756;-37.950;145.008;2023-01-04T09:47:58;101020.80;;;17.07;48.51
54870;BME280;40756;-37.950;145.008;2023-01-04T09:50:35;101022.97;;;16.66;49.66
54870;BME280;40756;-37.950;145.008;2023-01-04T09:53:11;101030.47;;;16.15;50.62
54870;BME280;40756;-37.950;145.008;2023-01-04T09:55:47;101031.00;;;16.86;49.94
54870;BME280;40756;-37.950;145.008;2023-01-04T09:58:25;101036.98;;;16.40;50.37
54870;BME280;40756;-37.950;145.008;2023-01-04T10:01:00;101042.38;;;16.90;50.25
54870;BME280;40756;-37.950;145.008;2023-01-04T10:03:32;101047.68;;;16.77;49.98
54870;BME280;40756;-37.950;145.008;2023-01-04T10:06:04;101046.06;;;16.74;50.00
54870;BME280;40756;-37.950;145.008;2023-01-04T10:08:34;101050.91;;;16.87;49.72
54870;BME280;40756;-37.950;145.008;2023-01-04T10:11:18;101057.94;;;16.90;49.23
54870;BME280;40756;-37.950;145.008;2023-01-04T10:14:08;101048.60;;;16.81;49.55
54870;BME280;40756;-37.950;145.008;2023-01-04T10:16:55;101056.23;;;16.41;50.54
54870;BME280;40756;-37.950;145.008;2023-01-04T10:19:40;101055.43;;;17.14;49.49
54870;BME280;40756;-37.950;145.008;2023-01-04T10:22:19;101058.61;;;16.86;49.29
54870;BME280;40756;-37.950;145.008;2023-01-04T10:24:57;101062.18;;;16.65;49.23
54870;BME280;40756;-37.950;145.008;2023-01-04T10:27:34;101063.84;;;16.77;49.23
54870;BME280;40756;-37.950;145.008;2023-01-04T10:30:21;101069.44;;;16.67;49.61
54870;BME280;40756;-37.950;145.008;2023-01-04T10:33:06;101072.76;;;16.45;49.44
54870;BME280;40756;-37.950;145.008;2023-01-04T10:35:40;101081.10;;;16.86;48.95
54870;BME280;40756;-37.950;145.008;2023-01-04T10:38:16;101081.94;;;16.67;49.66
54870;BME280;40756;-37.950;145.008;2023-01-04T10:40:47;101081.83;;;16.87;49.31
54870;BME280;40756;-37.950;145.008;2023-01-04T10:43:26;101083.72;;;16.15;50.55
54870;BME280;40756;-37.950;145.008;2023-01-04T10:46:05;101082.55;;;16.77;49.44
54870;BME280;40756;-37.950;145.008;2023-01-04T10:48:41;101086.17;;;16.42;49.91
54870;BME280;40756;-37.950;145.008;2023-01-04T10:51:16;101096.17;;;16.02;50.38
54870;BME280;40756;-37.950;145.008;2023-01-04T10:53:53;101092.99;;;16.24;49.95
54870;BME280;40756;-37.950;145.008;2023-01-04T10:56:29;101090.34;;;16.53;49.63
54870;BME280;40756;-37.950;145.008;2023-01-04T10:59:04;101092.26;;;16.71;49.43
54870;BME280;40756;-37.950;145.008;2023-01-04T11:01:39;101088.66;;;17.09;48.81
54870;BME280;40756;-37.950;145.008;2023-01-04T11:04:14;101092.39;;;16.73;49.53
54870;BME280;40756;-37.950;145.008;2023-01-04T11:06:51;101097.91;;;16.54;49.54
54870;BME280;40756;-37.950;145.008;2023-01-04T11:09:25;101104.76;;;16.29;49.90
54870;BME280;40756;-37.950;145.008;2023-01-04T11:11:57;101101.93;;;16.60;49.66
54870;BME280;40756;-37.950;145.008;2023-01-04T11:14:26;101105.59;;;16.20;50.39
54870;BME280;40756;-37.950;145.008;2023-01-04T11:17:00;101107.35;;;16.69;49.59
54870;BME280;40756;-37.950;145.008;2023-01-04T11:19:33;101108.94;;;16.22;50.31
54870;BME280;40756;-37.950;145.008;2023-01-04T11:22:08;101110.91;;;16.45;49.90
54870;BME280;40756;-37.950;145.008;2023-01-04T11:24:40;101112.73;;;16.23;49.64
54870;BME280;40756;-37.950;145.008;2023-01-04T11:27:15;101120.95;;;16.25;49.85
54870;BME280;40756;-37.950;145.008;2023-01-04T11:29:50;101118.51;;;16.47;50.18
54870;BME280;40756;-37.950;145.008;2023-01-04T11:32:34;101114.33;;;16.59;50.09
54870;BME280;40756;-37.950;145.008;2023-01-04T11:35:07;101116.54;;;16.43;50.44
54870;BME280;40756;-37.950;145.008;2023-01-04T11:37:38;101122.37;;;16.33;50.75
54870;BME280;40756;-37.950;145.008;2023-01-04T11:40:25;101121.07;;;16.80;49.85
54870;BME280;40756;-37.950;145.008;2023-01-04T11:43:13;101122.84;;;16.53;50.55
54870;BME280;40756;-37.950;145.008;2023-01-04T11:45:54;101121.82;;;16.77;50.36
54870;BME280;40756;-37.950;145.008;2023-01-04T11:48:42;101124.96;;;16.84;50.04
54870;BME280;40756;-37.950;145.008;2023-01-04T11:51:33;101125.89;;;16.47;50.57
54870;BME280;40756;-37.950;145.008;2023-01-04T11:54:05;101123.46;;;16.17;50.92
54870;BME280;40756;-37.950;145.008;2023-01-04T11:56:36;101125.97;;;16.64;50.63
54870;BME280;40756;-37.950;145.008;2023-01-04T11:59:12;101124.03;;;16.56;50.73
54870;BME280;40756;-37.950;145.008;2023-01-04T12:01:45;101123.00;;;16.80;49.89
54870;BME280;40756;-37.950;145.008;2023-01-04T12:04:20;101125.50;;;16.28;50.32
54870;BME280;40756;-37.950;145.008;2023-01-04T12:06:52;101119.79;;;16.14;50.80
54870;BME280;40756;-37.950;145.008;2023-01-04T12:09:24;101120.52;;;16.77;50.50
54870;BME280;40756;-37.950;145.008;2023-01-04T12:11:56;101118.19;;;16.59;51.04
54870;BME280;40756;-37.950;145.008;2023-01-04T12:14:28;101118.41;;;16.95;50.64
54870;BME280;40756;-37.950;145.008;2023-01-04T12:17:02;101122.15;;;15.91;51.57
54870;BME280;40756;-37.950;145.008;2023-01-04T12:19:35;101121.50;;;16.72;50.43
54870;BME280;40756;-37.950;145.008;2023-01-04T12:22:18;101115.64;;;16.54;50.46
54870;BME280;40756;-37.950;145.008;2023-01-04T12:24:48;101119.83;;;16.46;50.35
54870;BME280;40756;-37.950;145.008;2023-01-04T12:27:18;101127.38;;;16.47;50.27
54870;BME280;40756;-37.950;145.008;2023-01-04T12:29:57;101134.22;;;16.16;51.77
54870;BME280;40756;-37.950;145.008;2023-01-04T12:32:45;101131.58;;;16.29;51.49
54870;BME280;40756;-37.950;145.008;2023-01-04T12:36:02;101132.97;;;16.56;52.71
54870;BME280;40756;-37.950;145.008;2023-01-04T12:39:42;101141.17;;;15.84;54.27
54870;BME280;40756;-37.950;145.008;2023-01-04T12:42:16;101140.09;;;16.28;55.21
54870;BME280;40756;-37.950;145.008;2023-01-04T12:45:20;101133.33;;;16.09;55.56
54870;BME280;40756;-37.950;145.008;2023-01-04T12:47:54;101130.57;;;15.40;56.68
54870;BME280;40756;-37.950;145.008;2023-01-04T12:50:24;101134.59;;;16.03;56.36